KIZG 160254Z AUTO VRB04KT 10SM FEW110 23/19 A2989 RMK AO2 RAB09E54 SLP120 P0000 60000 T02280194 51014